Terminal Aerodrome Forecast
Issued by NWS Topeka, KS

Home | Current Version | Previous Version | Text Only | Print | Product List | Glossary Off
Versions: 1 2 3 4 5 6 7 8 9 10 11 12 13 14 15 16 17 18

177
FTUS43 KTOP 242320
TAFTOP
TAF
KTOP 242320Z 2500/2524 15009KT P6SM VCTS BKN035CB
      TEMPO 2500/2502 22015G30KT 2SM TSRA BKN035CB
     FM251500 33007KT P6SM SCT015 BKN050=

USA.gov is the U.S. government's official web portal to all federal, state and local government web resources and services.